sensor_id;sensor_type;location;lat;lon;timestamp;P1;durP1;ratioP1;P2;durP2;ratioP2
2656;SDS011;1338;48.176;11.792;2024-02-21T00:00:59;5.57;;;4.50;;
2656;SDS011;1338;48.176;11.792;2024-02-21T00:03:27;4.57;;;4.03;;
2656;SDS011;1338;48.176;11.792;2024-02-21T00:05:56;6.73;;;4.00;;
2656;SDS011;1338;48.176;11.792;2024-02-21T00:08:25;6.53;;;4.77;;
2656;SDS011;1338;48.176;11.792;2024-02-21T00:10:54;4.33;;;3.73;;
2656;SDS011;1338;48.176;11.792;2024-02-21T00:13:23;6.63;;;4.60;;
2656;SDS011;1338;48.176;11.792;2024-02-21T00:15:51;6.00;;;3.97;;
2656;SDS011;1338;48.176;11.792;2024-02-21T00:18:20;5.77;;;4.10;;
2656;SDS011;1338;48.176;11.792;2024-02-21T00:20:52;4.83;;;3.50;;
2656;SDS011;1338;48.176;11.792;2024-02-21T00:23:21;6.33;;;3.97;;
2656;SDS011;1338;48.176;11.792;2024-02-21T00:25:51;6.73;;;4.23;;
2656;SDS011;1338;48.176;11.792;2024-02-21T00:28:19;4.63;;;4.10;;
2656;SDS011;1338;48.176;11.792;2024-02-21T00:30:48;4.47;;;4.07;;
2656;SDS011;1338;48.176;11.792;2024-02-21T00:33:19;6.70;;;3.93;;
2656;SDS011;1338;48.176;11.792;2024-02-21T00:35:48;3.70;;;3.40;;
2656;SDS011;1338;48.176;11.792;2024-02-21T00:38:17;4.27;;;3.90;;
2656;SDS011;1338;48.176;11.792;2024-02-21T00:40:45;3.60;;;3.13;;
2656;SDS011;1338;48.176;11.792;2024-02-21T00:43:16;4.50;;;3.30;;
2656;SDS011;1338;48.176;11.792;2024-02-21T00:45:45;3.97;;;3.37;;
2656;SDS011;1338;48.176;11.792;2024-02-21T00:48:13;4.00;;;3.60;;
2656;SDS011;1338;48.176;11.792;2024-02-21T00:50:42;8.07;;;3.50;;
2656;SDS011;1338;48.176;11.792;2024-02-21T00:53:09;4.10;;;3.27;;
2656;SDS011;1338;48.176;11.792;2024-02-21T00:55:38;4.10;;;3.13;;
2656;SDS011;1338;48.176;11.792;2024-02-21T00:58:07;5.10;;;3.50;;
2656;SDS011;1338;48.176;11.792;2024-02-21T01:00:37;4.53;;;3.30;;
2656;SDS011;1338;48.176;11.792;2024-02-21T01:03:06;3.10;;;2.80;;
2656;SDS011;1338;48.176;11.792;2024-02-21T01:05:34;3.20;;;2.90;;
2656;SDS011;1338;48.176;11.792;2024-02-21T01:08:05;4.30;;;3.30;;
2656;SDS011;1338;48.176;11.792;2024-02-21T01:10:36;3.47;;;3.13;;
2656;SDS011;1338;48.176;11.792;2024-02-21T01:13:04;3.30;;;3.00;;
2656;SDS011;1338;48.176;11.792;2024-02-21T01:15:33;3.23;;;2.93;;
2656;SDS011;1338;48.176;11.792;2024-02-21T01:18:03;3.33;;;2.63;;
2656;SDS011;1338;48.176;11.792;2024-02-21T01:20:33;3.43;;;3.13;;
2656;SDS011;1338;48.176;11.792;2024-02-21T01:23:01;3.30;;;3.00;;
2656;SDS011;1338;48.176;11.792;2024-02-21T01:25:30;2.90;;;2.70;;
2656;SDS011;1338;48.176;11.792;2024-02-21T01:27:58;5.57;;;3.60;;
2656;SDS011;1338;48.176;11.792;2024-02-21T01:30:27;4.70;;;2.90;;
2656;SDS011;1338;48.176;11.792;2024-02-21T01:32:55;2.80;;;2.60;;
2656;SDS011;1338;48.176;11.792;2024-02-21T01:35:25;2.93;;;2.73;;
2656;SDS011;1338;48.176;11.792;2024-02-21T01:37:54;4.10;;;3.10;;
2656;SDS011;1338;48.176;11.792;2024-02-21T01:40:23;4.10;;;2.80;;
2656;SDS011;1338;48.176;11.792;2024-02-21T01:42:51;4.90;;;3.30;;
2656;SDS011;1338;48.176;11.792;2024-02-21T01:45:21;2.80;;;2.60;;
2656;SDS011;1338;48.176;11.792;2024-02-21T01:47:49;3.10;;;2.90;;
2656;SDS011;1338;48.176;11.792;2024-02-21T01:50:18;5.50;;;3.23;;
2656;SDS011;1338;48.176;11.792;2024-02-21T01:52:48;2.97;;;2.77;;
2656;SDS011;1338;48.176;11.792;2024-02-21T01:55:18;7.80;;;3.50;;
2656;SDS011;1338;48.176;11.792;2024-02-21T01:57:47;3.13;;;2.83;;
2656;SDS011;1338;48.176;11.792;2024-02-21T02:00:16;2.73;;;2.53;;
2656;SDS011;1338;48.176;11.792;2024-02-21T02:02:45;3.10;;;2.33;;
2656;SDS011;1338;48.176;11.792;2024-02-21T02:05:14;2.67;;;2.47;;
2656;SDS011;1338;48.176;11.792;2024-02-21T02:07:43;3.20;;;2.50;;
2656;SDS011;1338;48.176;11.792;2024-02-21T02:10:13;3.20;;;2.63;;
2656;SDS011;1338;48.176;11.792;2024-02-21T02:12:42;4.33;;;2.80;;
2656;SDS011;1338;48.176;11.792;2024-02-21T02:15:10;3.80;;;2.90;;
2656;SDS011;1338;48.176;11.792;2024-02-21T02:17:39;2.97;;;2.70;;
2656;SDS011;1338;48.176;11.792;2024-02-21T02:20:08;4.37;;;2.73;;
2656;SDS011;1338;48.176;11.792;2024-02-21T02:22:37;6.23;;;3.00;;
2656;SDS011;1338;48.176;11.792;2024-02-21T02:25:12;3.83;;;2.73;;
2656;SDS011;1338;48.176;11.792;2024-02-21T02:27:44;2.63;;;2.43;;
2656;SDS011;1338;48.176;11.792;2024-02-21T02:30:12;3.40;;;2.67;;
2656;SDS011;1338;48.176;11.792;2024-02-21T02:32:44;2.90;;;2.70;;
2656;SDS011;1338;48.176;11.792;2024-02-21T02:35:12;2.87;;;2.30;;
2656;SDS011;1338;48.176;11.792;2024-02-21T02:37:47;2.70;;;2.50;;
2656;SDS011;1338;48.176;11.792;2024-02-21T02:40:18;2.80;;;2.53;;
2656;SDS011;1338;48.176;11.792;2024-02-21T02:42:46;2.80;;;2.60;;
2656;SDS011;1338;48.176;11.792;2024-02-21T02:45:15;2.73;;;2.53;;
2656;SDS011;1338;48.176;11.792;2024-02-21T02:47:44;2.63;;;2.43;;
2656;SDS011;1338;48.176;11.792;2024-02-21T02:50:14;3.40;;;2.37;;
2656;SDS011;1338;48.176;11.792;2024-02-21T02:52:42;2.50;;;2.30;;
2656;SDS011;1338;48.176;11.792;2024-02-21T02:55:11;2.97;;;2.77;;
2656;SDS011;1338;48.176;11.792;2024-02-21T02:57:41;2.90;;;2.70;;
2656;SDS011;1338;48.176;11.792;2024-02-21T03:00:13;3.10;;;2.63;;
2656;SDS011;1338;48.176;11.792;2024-02-21T03:02:42;2.40;;;2.30;;
2656;SDS011;1338;48.176;11.792;2024-02-21T03:05:13;2.50;;;2.30;;
2656;SDS011;1338;48.176;11.792;2024-02-21T03:07:42;2.50;;;2.30;;
2656;SDS011;1338;48.176;11.792;2024-02-21T03:10:12;2.77;;;2.47;;
2656;SDS011;1338;48.176;11.792;2024-02-21T03:12:45;2.53;;;2.33;;
2656;SDS011;1338;48.176;11.792;2024-02-21T03:15:13;2.50;;;2.30;;
2656;SDS011;1338;48.176;11.792;2024-02-21T03:17:42;2.70;;;2.50;;
2656;SDS011;1338;48.176;11.792;2024-02-21T03:20:11;2.50;;;2.30;;
2656;SDS011;1338;48.176;11.792;2024-02-21T03:22:40;2.60;;;2.00;;
2656;SDS011;1338;48.176;11.792;2024-02-21T03:25:08;2.47;;;2.27;;
2656;SDS011;1338;48.176;11.792;2024-02-21T03:27:38;3.20;;;2.33;;
2656;SDS011;1338;48.176;11.792;2024-02-21T03:30:08;2.13;;;2.00;;
2656;SDS011;1338;48.176;11.792;2024-02-21T03:32:37;2.20;;;2.00;;
2656;SDS011;1338;48.176;11.792;2024-02-21T03:35:06;2.43;;;2.23;;
2656;SDS011;1338;48.176;11.792;2024-02-21T03:37:34;2.10;;;2.00;;
2656;SDS011;1338;48.176;11.792;2024-02-21T03:40:06;2.40;;;2.20;;
2656;SDS011;1338;48.176;11.792;2024-02-21T03:42:35;3.63;;;2.20;;
2656;SDS011;1338;48.176;11.792;2024-02-21T03:45:05;3.40;;;2.17;;
2656;SDS011;1338;48.176;11.792;2024-02-21T03:47:35;3.10;;;2.27;;
2656;SDS011;1338;48.176;11.792;2024-02-21T03:50:05;2.10;;;1.97;;
2656;SDS011;1338;48.176;11.792;2024-02-21T03:52:34;2.40;;;2.20;;
2656;SDS011;1338;48.176;11.792;2024-02-21T03:55:03;2.57;;;2.13;;
2656;SDS011;1338;48.176;11.792;2024-02-21T03:57:31;3.87;;;2.63;;
2656;SDS011;1338;48.176;11.792;2024-02-21T03:59:59;2.10;;;1.93;;
2656;SDS011;1338;48.176;11.792;2024-02-21T04:02:32;2.63;;;2.10;;
2656;SDS011;1338;48.176;11.792;2024-02-21T04:05:02;2.93;;;1.97;;
2656;SDS011;1338;48.176;11.792;2024-02-21T04:07:31;5.40;;;2.03;;
2656;SDS011;1338;48.176;11.792;2024-02-21T04:09:59;2.53;;;2.27;;
2656;SDS011;1338;48.176;11.792;2024-02-21T04:12:28;2.33;;;2.13;;
2656;SDS011;1338;48.176;11.792;2024-02-21T04:14:56;2.20;;;2.10;;
2656;SDS011;1338;48.176;11.792;2024-02-21T04:17:25;2.97;;;2.20;;
2656;SDS011;1338;48.176;11.792;2024-02-21T04:19:53;2.60;;;2.40;;
2656;SDS011;1338;48.176;11.792;2024-02-21T04:22:32;2.43;;;2.20;;
2656;SDS011;1338;48.176;11.792;2024-02-21T04:25:01;2.40;;;2.20;;
2656;SDS011;1338;48.176;11.792;2024-02-21T04:27:29;2.13;;;1.70;;
2656;SDS011;1338;48.176;11.792;2024-02-21T04:29:58;2.40;;;2.20;;
2656;SDS011;1338;48.176;11.792;2024-02-21T04:32:27;2.50;;;2.00;;
2656;SDS011;1338;48.176;11.792;2024-02-21T04:34:55;4.23;;;2.20;;
2656;SDS011;1338;48.176;11.792;2024-02-21T04:37:27;2.00;;;1.90;;
2656;SDS011;1338;48.176;11.792;2024-02-21T04:39:55;2.23;;;2.03;;
2656;SDS011;1338;48.176;11.792;2024-02-21T04:42:24;2.13;;;1.93;;
2656;SDS011;1338;48.176;11.792;2024-02-21T04:44:52;2.30;;;2.10;;
2656;SDS011;1338;48.176;11.792;2024-02-21T04:47:24;2.50;;;2.30;;
2656;SDS011;1338;48.176;11.792;2024-02-21T04:49:53;2.20;;;2.00;;
2656;SDS011;1338;48.176;11.792;2024-02-21T04:52:22;2.50;;;2.30;;
2656;SDS011;1338;48.176;11.792;2024-02-21T04:54:52;2.33;;;2.03;;
2656;SDS011;1338;48.176;11.792;2024-02-21T04:57:20;2.40;;;2.20;;
2656;SDS011;1338;48.176;11.792;2024-02-21T04:59:49;2.37;;;2.17;;
2656;SDS011;1338;48.176;11.792;2024-02-21T05:02:17;4.07;;;2.30;;
2656;SDS011;1338;48.176;11.792;2024-02-21T05:04:48;2.33;;;2.17;;
2656;SDS011;1338;48.176;11.792;2024-02-21T05:07:17;4.83;;;2.10;;
2656;SDS011;1338;48.176;11.792;2024-02-21T05:09:46;2.87;;;1.77;;
2656;SDS011;1338;48.176;11.792;2024-02-21T05:12:15;2.20;;;2.00;;
2656;SDS011;1338;48.176;11.792;2024-02-21T05:14:44;2.50;;;2.30;;
2656;SDS011;1338;48.176;11.792;2024-02-21T05:17:12;2.70;;;1.90;;
2656;SDS011;1338;48.176;11.792;2024-02-21T05:19:40;2.30;;;2.10;;
2656;SDS011;1338;48.176;11.792;2024-02-21T05:22:09;1.70;;;1.60;;
2656;SDS011;1338;48.176;11.792;2024-02-21T05:24:38;2.23;;;2.13;;
2656;SDS011;1338;48.176;11.792;2024-02-21T05:27:07;2.70;;;2.43;;
2656;SDS011;1338;48.176;11.792;2024-02-21T05:29:37;2.27;;;1.93;;
2656;SDS011;1338;48.176;11.792;2024-02-21T05:32:06;2.03;;;1.83;;
2656;SDS011;1338;48.176;11.792;2024-02-21T05:34:34;3.73;;;2.30;;
2656;SDS011;1338;48.176;11.792;2024-02-21T05:37:02;2.10;;;1.90;;
2656;SDS011;1338;48.176;11.792;2024-02-21T05:39:31;3.03;;;2.13;;
2656;SDS011;1338;48.176;11.792;2024-02-21T05:41:59;2.40;;;2.13;;
2656;SDS011;1338;48.176;11.792;2024-02-21T05:44:28;2.10;;;1.90;;
2656;SDS011;1338;48.176;11.792;2024-02-21T05:46:58;3.07;;;2.00;;
2656;SDS011;1338;48.176;11.792;2024-02-21T05:49:26;2.20;;;2.00;;
2656;SDS011;1338;48.176;11.792;2024-02-21T05:51:55;2.20;;;2.07;;
2656;SDS011;1338;48.176;11.792;2024-02-21T05:54:23;2.50;;;2.27;;
2656;SDS011;1338;48.176;11.792;2024-02-21T05:56:55;2.20;;;2.00;;
2656;SDS011;1338;48.176;11.792;2024-02-21T05:59:23;2.97;;;2.17;;
2656;SDS011;1338;48.176;11.792;2024-02-21T06:01:56;1.90;;;1.80;;
2656;SDS011;1338;48.176;11.792;2024-02-21T06:04:26;3.20;;;2.17;;
2656;SDS011;1338;48.176;11.792;2024-02-21T06:06:55;2.77;;;2.00;;
2656;SDS011;1338;48.176;11.792;2024-02-21T06:09:23;2.30;;;2.10;;
2656;SDS011;1338;48.176;11.792;2024-02-21T06:11:51;2.50;;;2.03;;
2656;SDS011;1338;48.176;11.792;2024-02-21T06:14:19;1.90;;;1.80;;
2656;SDS011;1338;48.176;11.792;2024-02-21T06:16:48;2.73;;;2.00;;
2656;SDS011;1338;48.176;11.792;2024-02-21T06:19:18;3.40;;;2.17;;
2656;SDS011;1338;48.176;11.792;2024-02-21T06:21:47;2.10;;;1.90;;
2656;SDS011;1338;48.176;11.792;2024-02-21T06:24:15;5.03;;;2.20;;
2656;SDS011;1338;48.176;11.792;2024-02-21T06:26:44;3.00;;;2.40;;
2656;SDS011;1338;48.176;11.792;2024-02-21T06:29:13;1.90;;;1.80;;
2656;SDS011;1338;48.176;11.792;2024-02-21T06:31:41;2.40;;;2.20;;
2656;SDS011;1338;48.176;11.792;2024-02-21T06:34:10;2.30;;;2.10;;
2656;SDS011;1338;48.176;11.792;2024-02-21T06:36:40;2.87;;;2.00;;
2656;SDS011;1338;48.176;11.792;2024-02-21T06:39:08;2.90;;;2.13;;
2656;SDS011;1338;48.176;11.792;2024-02-21T06:41:38;2.40;;;2.20;;
2656;SDS011;1338;48.176;11.792;2024-02-21T06:44:07;2.30;;;1.83;;
2656;SDS011;1338;48.176;11.792;2024-02-21T06:46:35;2.40;;;2.10;;
2656;SDS011;1338;48.176;11.792;2024-02-21T06:49:04;4.70;;;2.00;;
2656;SDS011;1338;48.176;11.792;2024-02-21T06:51:33;1.67;;;1.57;;
2656;SDS011;1338;48.176;11.792;2024-02-21T06:54:05;2.20;;;2.00;;
2656;SDS011;1338;48.176;11.792;2024-02-21T06:56:33;2.30;;;2.17;;
2656;SDS011;1338;48.176;11.792;2024-02-21T06:59:01;2.40;;;2.20;;
2656;SDS011;1338;48.176;11.792;2024-02-21T07:01:30;1.80;;;1.70;;
2656;SDS011;1338;48.176;11.792;2024-02-21T07:04:00;1.60;;;1.50;;
2656;SDS011;1338;48.176;11.792;2024-02-21T07:06:28;3.00;;;1.80;;
2656;SDS011;1338;48.176;11.792;2024-02-21T07:09:01;1.80;;;1.70;;
2656;SDS011;1338;48.176;11.792;2024-02-21T07:11:31;2.00;;;1.80;;
2656;SDS011;1338;48.176;11.792;2024-02-21T07:14:00;2.50;;;1.77;;
2656;SDS011;1338;48.176;11.792;2024-02-21T07:16:29;1.80;;;1.70;;
2656;SDS011;1338;48.176;11.792;2024-02-21T07:18:59;2.10;;;2.00;;
2656;SDS011;1338;48.176;11.792;2024-02-21T07:21:27;2.30;;;1.50;;
2656;SDS011;1338;48.176;11.792;2024-02-21T07:23:59;2.10;;;1.97;;
2656;SDS011;1338;48.176;11.792;2024-02-21T07:26:27;2.13;;;1.90;;
2656;SDS011;1338;48.176;11.792;2024-02-21T07:28:58;3.77;;;2.10;;
2656;SDS011;1338;48.176;11.792;2024-02-21T07:31:26;1.87;;;1.70;;
2656;SDS011;1338;48.176;11.792;2024-02-21T07:33:54;2.90;;;2.00;;
2656;SDS011;1338;48.176;11.792;2024-02-21T07:36:28;2.43;;;1.83;;
2656;SDS011;1338;48.176;11.792;2024-02-21T07:38:57;2.23;;;2.03;;
2656;SDS011;1338;48.176;11.792;2024-02-21T07:41:28;2.87;;;2.10;;
2656;SDS011;1338;48.176;11.792;2024-02-21T07:43:58;2.80;;;1.90;;
2656;SDS011;1338;48.176;11.792;2024-02-21T07:46:34;3.73;;;2.10;;
2656;SDS011;1338;48.176;11.792;2024-02-21T07:49:02;2.27;;;1.93;;
2656;SDS011;1338;48.176;11.792;2024-02-21T07:51:31;3.40;;;1.97;;
2656;SDS011;1338;48.176;11.792;2024-02-21T07:53:59;2.17;;;2.00;;
2656;SDS011;1338;48.176;11.792;2024-02-21T07:56:28;1.60;;;1.50;;
2656;SDS011;1338;48.176;11.792;2024-02-21T07:58:56;3.93;;;1.70;;
2656;SDS011;1338;48.176;11.792;2024-02-21T08:01:27;2.03;;;1.83;;
2656;SDS011;1338;48.176;11.792;2024-02-21T08:03:56;2.40;;;1.80;;
2656;SDS011;1338;48.176;11.792;2024-02-21T08:06:25;2.33;;;2.23;;
2656;SDS011;1338;48.176;11.792;2024-02-21T08:08:53;2.40;;;1.67;;
2656;SDS011;1338;48.176;11.792;2024-02-21T08:11:24;2.40;;;2.20;;
2656;SDS011;1338;48.176;11.792;2024-02-21T08:13:52;2.00;;;1.80;;
2656;SDS011;1338;48.176;11.792;2024-02-21T08:16:20;3.37;;;2.50;;
2656;SDS011;1338;48.176;11.792;2024-02-21T08:18:50;2.27;;;2.07;;
2656;SDS011;1338;48.176;11.792;2024-02-21T08:21:19;2.83;;;2.17;;
2656;SDS011;1338;48.176;11.792;2024-02-21T08:23:47;2.07;;;1.90;;
2656;SDS011;1338;48.176;11.792;2024-02-21T08:26:18;1.90;;;1.80;;
2656;SDS011;1338;48.176;11.792;2024-02-21T08:28:46;3.80;;;1.90;;
2656;SDS011;1338;48.176;11.792;2024-02-21T08:31:18;5.60;;;1.90;;
2656;SDS011;1338;48.176;11.792;2024-02-21T08:33:46;1.80;;;1.70;;
2656;SDS011;1338;48.176;11.792;2024-02-21T08:36:18;2.17;;;1.60;;
2656;SDS011;1338;48.176;11.792;2024-02-21T08:38:46;1.80;;;1.70;;
2656;SDS011;1338;48.176;11.792;2024-02-21T08:41:15;2.27;;;1.70;;
2656;SDS011;1338;48.176;11.792;2024-02-21T08:43:43;4.27;;;1.80;;
2656;SDS011;1338;48.176;11.792;2024-02-21T08:46:11;1.50;;;1.40;;
2656;SDS011;1338;48.176;11.792;2024-02-21T08:48:40;2.43;;;1.57;;
2656;SDS011;1338;48.176;11.792;2024-02-21T08:51:08;4.33;;;1.50;;
2656;SDS011;1338;48.176;11.792;2024-02-21T08:53:38;4.07;;;1.80;;
2656;SDS011;1338;48.176;11.792;2024-02-21T08:56:07;3.93;;;2.07;;
2656;SDS011;1338;48.176;11.792;2024-02-21T08:58:35;1.77;;;1.63;;
2656;SDS011;1338;48.176;11.792;2024-02-21T09:01:04;2.13;;;1.70;;
2656;SDS011;1338;48.176;11.792;2024-02-21T09:03:33;1.83;;;1.50;;
2656;SDS011;1338;48.176;11.792;2024-02-21T09:06:01;1.90;;;1.57;;
2656;SDS011;1338;48.176;11.792;2024-02-21T09:08:30;1.70;;;1.60;;
2656;SDS011;1338;48.176;11.792;2024-02-21T09:11:00;2.30;;;1.70;;
2656;SDS011;1338;48.176;11.792;2024-02-21T09:13:30;2.00;;;1.90;;
2656;SDS011;1338;48.176;11.792;2024-02-21T09:15:58;3.77;;;2.00;;
2656;SDS011;1338;48.176;11.792;2024-02-21T09:18:28;3.20;;;2.13;;
2656;SDS011;1338;48.176;11.792;2024-02-21T09:20:57;2.80;;;1.83;;
2656;SDS011;1338;48.176;11.792;2024-02-21T09:23:26;2.10;;;1.90;;
2656;SDS011;1338;48.176;11.792;2024-02-21T09:25:55;3.27;;;1.70;;
2656;SDS011;1338;48.176;11.792;2024-02-21T09:28:25;1.90;;;1.70;;
2656;SDS011;1338;48.176;11.792;2024-02-21T09:30:54;2.40;;;1.70;;
2656;SDS011;1338;48.176;11.792;2024-02-21T09:33:22;2.27;;;1.83;;
2656;SDS011;1338;48.176;11.792;2024-02-21T09:35:58;2.17;;;1.80;;
2656;SDS011;1338;48.176;11.792;2024-02-21T09:38:26;2.40;;;2.30;;
2656;SDS011;1338;48.176;11.792;2024-02-21T09:40:55;1.87;;;1.77;;
2656;SDS011;1338;48.176;11.792;2024-02-21T09:43:30;1.70;;;1.53;;
2656;SDS011;1338;48.176;11.792;2024-02-21T09:46:01;1.70;;;1.60;;
2656;SDS011;1338;48.176;11.792;2024-02-21T09:48:33;2.90;;;1.90;;
2656;SDS011;1338;48.176;11.792;2024-02-21T09:51:16;1.60;;;1.50;;
2656;SDS011;1338;48.176;11.792;2024-02-21T09:53:46;1.80;;;1.70;;
2656;SDS011;1338;48.176;11.792;2024-02-21T09:56:28;1.80;;;1.70;;
2656;SDS011;1338;48.176;11.792;2024-02-21T09:58:58;2.60;;;2.07;;
2656;SDS011;1338;48.176;11.792;2024-02-21T10:01:27;2.00;;;1.90;;
2656;SDS011;1338;48.176;11.792;2024-02-21T10:04:01;2.30;;;2.10;;
2656;SDS011;1338;48.176;11.792;2024-02-21T10:06:31;2.07;;;1.97;;
2656;SDS011;1338;48.176;11.792;2024-02-21T10:09:01;2.00;;;1.80;;
2656;SDS011;1338;48.176;11.792;2024-02-21T10:11:30;1.93;;;1.73;;
2656;SDS011;1338;48.176;11.792;2024-02-21T10:14:06;3.40;;;1.73;;
2656;SDS011;1338;48.176;11.792;2024-02-21T10:16:35;3.33;;;2.07;;
2656;SDS011;1338;48.176;11.792;2024-02-21T10:19:04;1.97;;;1.77;;
2656;SDS011;1338;48.176;11.792;2024-02-21T10:21:33;2.27;;;1.83;;
2656;SDS011;1338;48.176;11.792;2024-02-21T10:24:01;1.77;;;1.60;;
2656;SDS011;1338;48.176;11.792;2024-02-21T10:26:29;5.73;;;2.77;;
2656;SDS011;1338;48.176;11.792;2024-02-21T10:28:58;2.17;;;1.97;;
2656;SDS011;1338;48.176;11.792;2024-02-21T10:31:30;1.93;;;1.80;;
2656;SDS011;1338;48.176;11.792;2024-02-21T10:34:00;2.47;;;2.27;;
2656;SDS011;1338;48.176;11.792;2024-02-21T10:36:32;2.17;;;1.90;;
2656;SDS011;1338;48.176;11.792;2024-02-21T10:39:01;1.93;;;1.60;;
2656;SDS011;1338;48.176;11.792;2024-02-21T10:41:29;2.30;;;1.50;;
2656;SDS011;1338;48.176;11.792;2024-02-21T10:43:59;2.17;;;1.63;;
2656;SDS011;1338;48.176;11.792;2024-02-21T10:46:33;1.97;;;1.87;;
2656;SDS011;1338;48.176;11.792;2024-02-21T10:49:10;1.90;;;1.70;;
2656;SDS011;1338;48.176;11.792;2024-02-21T10:51:42;2.50;;;1.80;;
2656;SDS011;1338;48.176;11.792;2024-02-21T10:54:15;1.70;;;1.60;;
2656;SDS011;1338;48.176;11.792;2024-02-21T10:56:57;1.97;;;1.80;;
2656;SDS011;1338;48.176;11.792;2024-02-21T10:59:28;2.43;;;2.23;;
2656;SDS011;1338;48.176;11.792;2024-02-21T11:02:00;2.03;;;1.80;;
2656;SDS011;1338;48.176;11.792;2024-02-21T11:04:29;2.60;;;1.97;;
2656;SDS011;1338;48.176;11.792;2024-02-21T11:07:03;1.60;;;1.40;;
2656;SDS011;1338;48.176;11.792;2024-02-21T11:09:37;2.23;;;1.70;;
2656;SDS011;1338;48.176;11.792;2024-02-21T11:12:09;1.60;;;1.50;;
2656;SDS011;1338;48.176;11.792;2024-02-21T11:14:38;1.50;;;1.37;;
2656;SDS011;1338;48.176;11.792;2024-02-21T11:17:16;1.60;;;1.40;;
2656;SDS011;1338;48.176;11.792;2024-02-21T11:19:45;1.50;;;1.40;;
2656;SDS011;1338;48.176;11.792;2024-02-21T11:22:14;1.57;;;1.47;;
2656;SDS011;1338;48.176;11.792;2024-02-21T11:24:44;1.60;;;1.50;;
2656;SDS011;1338;48.176;11.792;2024-02-21T11:27:13;1.60;;;1.50;;
2656;SDS011;1338;48.176;11.792;2024-02-21T11:29:43;1.60;;;1.50;;
2656;SDS011;1338;48.176;11.792;2024-02-21T11:32:14;1.40;;;1.30;;
2656;SDS011;1338;48.176;11.792;2024-02-21T11:34:53;1.50;;;1.40;;
2656;SDS011;1338;48.176;11.792;2024-02-21T11:37:24;1.70;;;1.40;;
2656;SDS011;1338;48.176;11.792;2024-02-21T11:39:54;1.80;;;1.50;;
2656;SDS011;1338;48.176;11.792;2024-02-21T11:42:22;1.60;;;1.50;;
2656;SDS011;1338;48.176;11.792;2024-02-21T11:44:52;1.37;;;1.27;;
2656;SDS011;1338;48.176;11.792;2024-02-21T11:47:23;1.40;;;1.30;;
2656;SDS011;1338;48.176;11.792;2024-02-21T11:49:51;2.07;;;1.33;;
2656;SDS011;1338;48.176;11.792;2024-02-21T11:52:22;3.60;;;1.50;;
2656;SDS011;1338;48.176;11.792;2024-02-21T11:54:52;1.50;;;1.40;;
2656;SDS011;1338;48.176;11.792;2024-02-21T11:57:24;1.20;;;1.10;;
2656;SDS011;1338;48.176;11.792;2024-02-21T11:59:52;1.30;;;1.20;;
2656;SDS011;1338;48.176;11.792;2024-02-21T12:02:26;1.60;;;1.50;;
2656;SDS011;1338;48.176;11.792;2024-02-21T12:04:56;1.50;;;1.40;;
2656;SDS011;1338;48.176;11.792;2024-02-21T12:07:25;8.93;;;1.57;;
2656;SDS011;1338;48.176;11.792;2024-02-21T12:09:58;1.50;;;1.40;;
2656;SDS011;1338;48.176;11.792;2024-02-21T12:12:27;1.43;;;1.33;;
2656;SDS011;1338;48.176;11.792;2024-02-21T12:14:56;1.53;;;1.43;;
2656;SDS011;1338;48.176;11.792;2024-02-21T12:17:25;1.53;;;1.40;;
2656;SDS011;1338;48.176;11.792;2024-02-21T12:19:54;1.60;;;1.50;;
2656;SDS011;1338;48.176;11.792;2024-02-21T12:22:24;1.40;;;1.30;;
2656;SDS011;1338;48.176;11.792;2024-02-21T12:24:53;1.83;;;1.70;;
2656;SDS011;1338;48.176;11.792;2024-02-21T12:27:22;1.50;;;1.40;;
2656;SDS011;1338;48.176;11.792;2024-02-21T12:29:51;1.30;;;1.20;;
2656;SDS011;1338;48.176;11.792;2024-02-21T12:32:19;1.70;;;1.43;;
2656;SDS011;1338;48.176;11.792;2024-02-21T12:34:48;1.63;;;1.37;;
2656;SDS011;1338;48.176;11.792;2024-02-21T12:37:21;1.73;;;1.60;;
2656;SDS011;1338;48.176;11.792;2024-02-21T12:39:52;2.00;;;1.37;;
2656;SDS011;1338;48.176;11.792;2024-02-21T12:42:20;2.90;;;1.40;;
2656;SDS011;1338;48.176;11.792;2024-02-21T12:44:50;1.37;;;1.20;;
2656;SDS011;1338;48.176;11.792;2024-02-21T12:47:18;1.40;;;1.30;;
2656;SDS011;1338;48.176;11.792;2024-02-21T12:49:51;1.77;;;1.17;;
2656;SDS011;1338;48.176;11.792;2024-02-21T12:52:19;1.70;;;1.53;;
2656;SDS011;1338;48.176;11.792;2024-02-21T12:54:49;1.83;;;1.30;;
2656;SDS011;1338;48.176;11.792;2024-02-21T12:57:18;1.40;;;1.30;;
2656;SDS011;1338;48.176;11.792;2024-02-21T12:59:49;1.27;;;1.17;;
2656;SDS011;1338;48.176;11.792;2024-02-21T13:02:17;1.40;;;1.13;;
2656;SDS011;1338;48.176;11.792;2024-02-21T13:04:47;1.83;;;1.33;;
2656;SDS011;1338;48.176;11.792;2024-02-21T13:07:16;1.30;;;1.20;;
2656;SDS011;1338;48.176;11.792;2024-02-21T13:09:44;1.47;;;1.37;;
2656;SDS011;1338;48.176;11.792;2024-02-21T13:12:14;1.80;;;1.33;;
2656;SDS011;1338;48.176;11.792;2024-02-21T13:14:43;1.30;;;1.20;;
2656;SDS011;1338;48.176;11.792;2024-02-21T13:17:11;1.30;;;1.10;;
2656;SDS011;1338;48.176;11.792;2024-02-21T13:19:42;3.33;;;1.30;;
2656;SDS011;1338;48.176;11.792;2024-02-21T13:22:10;1.20;;;1.10;;
2656;SDS011;1338;48.176;11.792;2024-02-21T13:24:41;1.30;;;1.20;;
2656;SDS011;1338;48.176;11.792;2024-02-21T13:27:09;1.73;;;1.40;;
2656;SDS011;1338;48.176;11.792;2024-02-21T13:29:40;1.30;;;1.20;;
2656;SDS011;1338;48.176;11.792;2024-02-21T13:32:11;1.30;;;1.20;;
2656;SDS011;1338;48.176;11.792;2024-02-21T13:34:39;1.40;;;1.30;;
2656;SDS011;1338;48.176;11.792;2024-02-21T13:37:09;1.30;;;1.20;;
2656;SDS011;1338;48.176;11.792;2024-02-21T13:39:37;2.90;;;1.20;;
2656;SDS011;1338;48.176;11.792;2024-02-21T13:42:06;1.67;;;1.50;;
2656;SDS011;1338;48.176;11.792;2024-02-21T13:44:34;1.20;;;1.10;;
2656;SDS011;1338;48.176;11.792;2024-02-21T13:47:04;1.37;;;1.20;;
2656;SDS011;1338;48.176;11.792;2024-02-21T13:49:34;1.30;;;1.20;;
2656;SDS011;1338;48.176;11.792;2024-02-21T13:52:03;1.97;;;1.40;;
2656;SDS011;1338;48.176;11.792;2024-02-21T13:54:32;1.30;;;1.20;;
2656;SDS011;1338;48.176;11.792;2024-02-21T13:57:01;1.20;;;1.10;;
2656;SDS011;1338;48.176;11.792;2024-02-21T13:59:30;1.30;;;1.20;;
2656;SDS011;1338;48.176;11.792;2024-02-21T14:01:59;1.40;;;1.30;;
2656;SDS011;1338;48.176;11.792;2024-02-21T14:04:29;1.50;;;1.10;;
2656;SDS011;1338;48.176;11.792;2024-02-21T14:06:58;1.23;;;1.13;;
2656;SDS011;1338;48.176;11.792;2024-02-21T14:09:28;1.50;;;1.40;;
2656;SDS011;1338;48.176;11.792;2024-02-21T14:11:56;1.20;;;1.10;;
2656;SDS011;1338;48.176;11.792;2024-02-21T14:14:25;1.47;;;1.37;;
2656;SDS011;1338;48.176;11.792;2024-02-21T14:16:53;1.30;;;1.20;;
2656;SDS011;1338;48.176;11.792;2024-02-21T14:19:23;1.40;;;1.23;;
2656;SDS011;1338;48.176;11.792;2024-02-21T14:21:53;1.57;;;1.47;;
2656;SDS011;1338;48.176;11.792;2024-02-21T14:24:23;2.30;;;1.30;;
2656;SDS011;1338;48.176;11.792;2024-02-21T14:26:51;1.40;;;1.30;;
2656;SDS011;1338;48.176;11.792;2024-02-21T14:29:19;1.57;;;1.30;;
2656;SDS011;1338;48.176;11.792;2024-02-21T14:31:48;1.87;;;1.40;;
2656;SDS011;1338;48.176;11.792;2024-02-21T14:34:17;1.30;;;1.20;;
2656;SDS011;1338;48.176;11.792;2024-02-21T14:36:46;1.40;;;1.30;;
2656;SDS011;1338;48.176;11.792;2024-02-21T14:39:16;1.60;;;1.40;;
2656;SDS011;1338;48.176;11.792;2024-02-21T14:41:45;2.10;;;1.27;;
2656;SDS011;1338;48.176;11.792;2024-02-21T14:44:13;1.50;;;1.27;;
2656;SDS011;1338;48.176;11.792;2024-02-21T14:46:43;1.40;;;1.30;;
2656;SDS011;1338;48.176;11.792;2024-02-21T14:49:11;1.30;;;1.20;;
2656;SDS011;1338;48.176;11.792;2024-02-21T14:51:41;1.47;;;1.37;;
2656;SDS011;1338;48.176;11.792;2024-02-21T14:54:09;1.60;;;1.50;;
2656;SDS011;1338;48.176;11.792;2024-02-21T14:56:39;1.70;;;1.47;;
2656;SDS011;1338;48.176;11.792;2024-02-21T14:59:08;1.90;;;1.40;;
2656;SDS011;1338;48.176;11.792;2024-02-21T15:01:46;1.47;;;1.37;;
2656;SDS011;1338;48.176;11.792;2024-02-21T15:04:15;2.80;;;1.70;;
2656;SDS011;1338;48.176;11.792;2024-02-21T15:06:47;2.33;;;1.67;;
2656;SDS011;1338;48.176;11.792;2024-02-21T15:09:15;1.60;;;1.50;;
2656;SDS011;1338;48.176;11.792;2024-02-21T15:11:47;1.77;;;1.67;;
2656;SDS011;1338;48.176;11.792;2024-02-21T15:14:15;1.60;;;1.50;;